M I D A S
Marine Information and Data Acquisition System
Tripno 1203 of the Zeeleeuw from 2007-01-22 08:14:11 to 2007-01-22 15:55:20
Back to CruiseResearch ActivitiesStationsMapUnderway DataData graphs

EquipmentUnitsComments
TimeDGPSUTC
LatitudeDGPSDM.mWGS84
LongitudeDGPSDM.mWGS84
SpeedMeteo Stationm/sRelative wind speed
DirectionMeteo StationdegRelative wind direction
TemperatureMeteo Stationdeg CelciusAir temperature
PressureMeteo StationPaAtmospheric pressure
HumidityMeteo Station%Relative humidity
Missing or incorrect values are displayed as -999
Metereological data collected by the RV Zeeleeuw from 2007-01-22 07:31:52 to 2007-01-22 16:03:59
Time Latitude Longitude Speed Direction Temperature Pressure Humidity
2007-01-22 07:32 51°13.619 2°56.043 -999 -999 -999 -999 -999
2007-01-22 07:33 51°13.62 2°56.042 -999 -999 -999 -999 -999
2007-01-22 07:34 51°13.62 2°56.042 -999 -999 -999 -999 -999
2007-01-22 07:35 51°13.62 2°56.042 -999 -999 -999 -999 -999
2007-01-22 07:36 51°13.62 2°56.043 -999 -999 -999 -999 -999
2007-01-22 07:37 51°13.62 2°56.043 -999 -999 -999 -999 -999
2007-01-22 07:38 51°13.619 2°56.043 -999 -999 -999 -999 -999
2007-01-22 07:39 51°13.62 2°56.043 -999 -999 -999 -999 -999
2007-01-22 07:40 51°13.62 2°56.044 -999 -999 -999 -999 -999
2007-01-22 07:41 51°13.62 2°56.044 -999 -999 -999 -999 -999
2007-01-22 07:42 51°13.62 2°56.044 2 1 -999 -999 -999
2007-01-22 07:43 51°13.62 2°56.044 1.7 29 2.9 101340 97
2007-01-22 07:44 51°13.621 2°56.044 2.6 22 3 101340 97
2007-01-22 07:45 51°13.62 2°56.044 1.5 5 2.9 101340 97
2007-01-22 07:46 51°13.62 2°56.043 2.4 15 3 101340 97
2007-01-22 07:47 51°13.62 2°56.043 2.4 28 3 101340 97
2007-01-22 07:48 51°13.62 2°56.043 2.2 6 3 101340 97
2007-01-22 07:49 51°13.62 2°56.043 1.4 7 3 101350 97
2007-01-22 07:50 51°13.62 2°56.043 1.7 13 3 101350 97
2007-01-22 07:51 51°13.62 2°56.043 1.9 14 3 101350 97
2007-01-22 07:52 51°13.619 2°56.043 2.1 354 3 101350 97
2007-01-22 07:53 51°13.62 2°56.043 3.4 9 3 101350 97
2007-01-22 07:54 51°13.62 2°56.043 2 18 3 101360 97
2007-01-22 07:55 51°13.62 2°56.043 2.5 3 3 101360 97
2007-01-22 07:56 51°13.62 2°56.043 2.2 355 3 101360 97
2007-01-22 07:57 51°13.62 2°56.042 2.8 355 3 101360 97
2007-01-22 07:58 51°13.62 2°56.042 1.9 2 3 101360 97
2007-01-22 07:59 51°13.62 2°56.042 1.1 343 3.1 101360 97
2007-01-22 08:00 51°13.62 2°56.042 3.1 -999 3.1 101360 97
2007-01-22 08:01 51°13.619 2°56.042 1.3 7 3.1 101370 97
2007-01-22 08:02 51°13.619 2°56.043 2 353 3.1 101370 97
2007-01-22 08:03 51°13.619 2°56.043 2.1 3 3.1 101370 97
2007-01-22 08:04 51°13.618 2°56.042 2.8 6 3.1 101370 97
2007-01-22 08:05 51°13.618 2°56.042 1.5 359 3.1 101380 97
2007-01-22 08:06 51°13.619 2°56.042 2.3 25 3.1 101380 97
2007-01-22 08:07 51°13.619 2°56.042 2.2 17 3.1 101380 97
2007-01-22 08:08 51°13.617 2°56.042 1.7 12 3.1 101380 97
2007-01-22 08:09 51°13.619 2°56.042 1.5 357 3.1 101390 97
2007-01-22 08:10 51°13.619 2°56.043 1.9 9 3.1 101380 97
2007-01-22 08:11 51°13.618 2°56.042 2.3 355 3.1 101380 97
2007-01-22 08:12 51°13.619 2°56.043 3 354 3.1 101380 97
2007-01-22 08:13 51°13.619 2°56.043 1.5 15 3.1 101380 97
2007-01-22 08:14 51°13.619 2°56.043 2.7 14 3.1 101380 97
2007-01-22 08:15 51°13.619 2°56.044 2 12 3.1 101390 97
2007-01-22 08:16 51°13.619 2°56.044 1.8 21 3.1 101380 97
2007-01-22 08:17 51°13.627 2°56.016 3.5 41 3.1 101380 97
2007-01-22 08:18 51°13.653 2°55.927 2.8 26 3.1 101380 97
2007-01-22 08:19 51°13.675 2°55.834 3.2 34 3.1 101380 97
2007-01-22 08:20 51°13.683 2°55.766 3.5 43 3.1 101380 97
2007-01-22 08:21 51°13.687 2°55.754 2 25 3.1 101380 97
2007-01-22 08:22 51°13.715 2°55.757 2.9 27 3.2 101390 97
2007-01-22 08:23 51°13.772 2°55.695 3.4 25 3.2 101390 97
2007-01-22 08:24 51°13.873 2°55.603 1.7 20 3.1 101380 97
2007-01-22 08:25 51°13.994 2°55.517 3.5 25 3.1 101380 97
2007-01-22 08:26 51°14.116 2°55.428 3.2 24 3.2 101380 97
2007-01-22 08:27 51°14.232 2°55.317 3.2 22 3.2 101380 97
2007-01-22 08:28 51°14.339 2°55.121 6.3 26 3.3 101360 97
2007-01-22 08:29 51°14.439 2°54.857 10.5 22 3.5 101350 98
2007-01-22 08:30 51°14.415 2°54.523 11.3 319 3.6 101330 97
2007-01-22 08:31 51°14.334 2°54.181 11.3 320 3.6 101350 97
2007-01-22 08:32 51°14.25 2°53.833 11.4 322 3.8 101350 97
2007-01-22 08:33 51°14.135 2°53.504 11.1 323 3.8 101340 97
2007-01-22 08:34 51°14.017 2°53.172 12.5 323 3.8 101340 97
2007-01-22 08:35 51°13.903 2°52.831 12.6 324 3.9 101350 97
2007-01-22 08:36 51°13.78 2°52.495 12.1 322 3.9 101350 97
2007-01-22 08:37 51°13.657 2°52.157 11.5 321 3.8 101350 97
2007-01-22 08:38 51°13.534 2°51.819 11.3 320 3.7 101350 96
2007-01-22 08:39 51°13.412 2°51.48 11 323 3.7 101360 97
2007-01-22 08:40 51°13.289 2°51.135 10.5 322 3.6 101360 97
2007-01-22 08:41 51°13.169 2°50.8 10.7 322 3.7 101370 97
2007-01-22 08:42 51°13.047 2°50.451 10.2 323 3.7 101370 97
2007-01-22 08:43 51°12.925 2°50.11 11.7 325 3.6 101370 97
2007-01-22 08:44 51°12.811 2°49.769 11.2 321 3.6 101370 97
2007-01-22 08:45 51°12.702 2°49.417 11.4 323 3.7 101370 97
2007-01-22 08:46 51°12.6 2°49.058 10.6 324 3.8 101370 97
2007-01-22 08:47 51°12.501 2°48.69 11.5 323 3.9 101370 97
2007-01-22 08:48 51°12.404 2°48.325 10.7 320 3.8 101370 97
2007-01-22 08:49 51°12.308 2°47.96 11.3 321 3.9 101370 97
2007-01-22 08:50 51°12.21 2°47.595 10.8 321 3.9 101380 97
2007-01-22 08:51 51°12.114 2°47.229 10.8 324 4 101380 97
2007-01-22 08:52 51°12.021 2°46.866 11.3 321 4 101390 97
2007-01-22 08:53 51°11.923 2°46.499 11.7 322 4.1 101390 97
2007-01-22 08:54 51°11.825 2°46.124 11.9 321 4.1 101390 97
2007-01-22 08:55 51°11.731 2°45.761 10.7 319 4.2 101390 97
2007-01-22 08:56 51°11.631 2°45.386 11.6 322 4.2 101390 97
2007-01-22 08:57 51°11.534 2°45.026 11.5 320 4.2 101390 96
2007-01-22 08:58 51°11.433 2°44.656 12.8 323 4.3 101390 97
2007-01-22 08:59 51°11.336 2°44.294 13.9 322 4.4 101380 96
2007-01-22 09:00 51°11.24 2°43.933 12.2 322 4.4 101390 96
2007-01-22 09:01 51°11.145 2°43.574 12.9 323 4.4 101390 96
2007-01-22 09:02 51°11.051 2°43.214 14 322 4.4 101390 96
2007-01-22 09:03 51°10.957 2°42.856 12.7 319 4.3 101380 95
2007-01-22 09:04 51°10.879 2°42.488 12.6 320 4.3 101390 95
2007-01-22 09:05 51°10.811 2°42.114 12.7 317 4.3 101380 95
2007-01-22 09:06 51°10.798 2°41.745 10.2 23 4.3 101370 95
2007-01-22 09:07 51°10.939 2°41.708 4 28 4.3 101430 95
2007-01-22 09:08 51°11.03 2°41.892 5 21 4.4 101420 95
2007-01-22 09:09 51°11.091 2°42.016 4.7 19 4.4 101420 95
2007-01-22 09:10 51°11.12 2°42.05 6.3 34 4.4 101420 95
2007-01-22 09:11 51°11.116 2°42.066 6.5 17 4.4 101410 94
2007-01-22 09:12 51°11.108 2°42.062 6.4 16 4.3 101410 94
2007-01-22 09:13 51°11.1 2°42.054 8 11 4.4 101410 94
2007-01-22 09:14 51°11.093 2°42.044 6.8 10 4.4 101410 94
2007-01-22 09:15 51°11.085 2°42.03 5.8 8 4.5 101410 94
2007-01-22 09:16 51°11.078 2°42.017 5.2 5 4.6 101420 95
2007-01-22 09:17 51°11.071 2°42.002 5.8 7 4.6 101420 94
2007-01-22 09:18 51°11.066 2°41.987 6 5 4.6 101410 94
2007-01-22 09:19 51°11.061 2°41.971 5.2 1 4.6 101410 94
2007-01-22 09:20 51°11.02 2°41.951 8.9 330 4.7 101420 94
2007-01-22 09:21 51°10.942 2°41.76 11.1 323 4.6 101420 94
2007-01-22 09:22 51°10.835 2°41.469 12.5 322 4.6 101430 94
2007-01-22 09:23 51°10.786 2°41.119 12.2 316 4.6 101410 94
2007-01-22 09:24 51°10.744 2°40.761 11 319 4.7 101420 94
2007-01-22 09:25 51°10.694 2°40.405 11 319 4.7 101400 94
2007-01-22 09:26 51°10.644 2°40.047 11.7 319 4.7 101400 93
2007-01-22 09:27 51°10.592 2°39.689 11.4 320 4.7 101400 93
2007-01-22 09:28 51°10.548 2°39.329 11.5 319 4.8 101400 93
2007-01-22 09:29 51°10.513 2°38.964 11.7 27 4.8 101400 93
2007-01-22 09:30 51°10.479 2°38.598 12.5 319 4.8 101400 93
2007-01-22 09:31 51°10.445 2°38.231 12.2 318 4.8 101410 93
2007-01-22 09:32 51°10.414 2°37.865 12 318 4.9 101400 92
2007-01-22 09:33 51°10.384 2°37.499 12.2 318 4.8 101410 92
2007-01-22 09:34 51°10.438 2°37.153 10.3 24 4.9 101410 92
2007-01-22 09:35 51°10.52 2°36.835 8.7 19 4.9 101410 92
2007-01-22 09:36 51°10.65 2°36.592 8 22 5.1 101420 93
2007-01-22 09:37 51°10.836 2°36.466 4.7 244 5.2 101420 93
2007-01-22 09:38 51°11.02 2°36.54 1.7 21 5.2 101440 93
2007-01-22 09:39 51°11.185 2°36.691 1.7 26 5.3 101440 93
2007-01-22 09:40 51°11.352 2°36.838 2.3 24 5.3 101440 93
2007-01-22 09:41 51°11.522 2°36.98 2.8 319 5.3 101440 93
2007-01-22 09:42 51°11.701 2°37.129 2.5 24 5.3 101440 92
2007-01-22 09:43 51°11.881 2°37.274 2.6 27 5.3 101440 92
2007-01-22 09:44 51°12.062 2°37.418 2.4 23 5.3 101440 92
2007-01-22 09:45 51°12.242 2°37.563 3.3 26 5.3 101440 92
2007-01-22 09:46 51°12.423 2°37.705 3.5 26 5.4 101440 92
2007-01-22 09:47 51°12.605 2°37.848 4.9 26 5.4 101440 92
2007-01-22 09:48 51°12.785 2°37.99 3.5 25 5.4 101440 92
2007-01-22 09:49 51°12.965 2°38.132 4.5 24 5.4 101440 92
2007-01-22 09:50 51°13.145 2°38.278 4.3 24 5.4 101470 92
2007-01-22 09:51 51°13.318 2°38.441 4 318 5.4 101450 92
2007-01-22 09:52 51°13.48 2°38.633 3.9 20 5.4 101440 92
2007-01-22 09:53 51°13.641 2°38.826 3.4 25 5.4 101440 92
2007-01-22 09:54 51°13.806 2°39.011 4 20 5.4 101440 92
2007-01-22 09:55 51°14.004 2°39.025 7.7 19 5.5 101430 93
2007-01-22 09:56 51°14.186 2°38.859 10.2 315 5.5 101420 93
2007-01-22 09:57 51°14.325 2°38.583 10.1 317 5.6 101430 93
2007-01-22 09:58 51°14.476 2°38.327 9.8 21 5.5 101430 93
2007-01-22 09:59 51°14.641 2°38.098 8 319 5.4 101430 93
2007-01-22 10:00 51°14.806 2°37.873 8.7 315 5.4 101440 94
2007-01-22 10:01 51°14.973 2°37.654 8 22 5.4 101440 94
2007-01-22 10:02 51°15.145 2°37.435 7.1 23 5.4 101430 94
2007-01-22 10:03 51°15.326 2°37.222 7.1 22 5.3 101430 94
2007-01-22 10:04 51°15.511 2°37.021 6 24 5.3 101430 94
2007-01-22 10:05 51°15.698 2°36.837 5.6 27 5.2 101430 94
2007-01-22 10:06 51°15.894 2°36.68 5 25 5.2 101440 94
2007-01-22 10:07 51°16.079 2°36.495 6.1 23 5.2 101440 94
2007-01-22 10:08 51°16.259 2°36.335 3 18 5.1 101440 94
2007-01-22 10:09 51°16.34 2°36.493 2.9 14 5.3 101450 94
2007-01-22 10:10 51°16.427 2°36.604 1.9 24 5.3 101470 94
2007-01-22 10:11 51°16.475 2°36.664 3.7 40 5.2 101470 93
2007-01-22 10:12 51°16.501 2°36.692 3.6 25 5.3 101480 93
2007-01-22 10:13 51°16.516 2°36.716 4.1 26 5.4 101470 93
2007-01-22 10:14 51°16.541 2°36.739 3.9 21 5.5 101460 92
2007-01-22 10:15 51°16.581 2°36.784 2.3 19 5.5 101470 92
2007-01-22 10:16 51°16.607 2°36.793 4 26 5.8 101470 92
2007-01-22 10:17 51°16.617 2°36.771 4.1 27 5.7 101470 90
2007-01-22 10:18 51°16.619 2°36.741 5.4 27 5.9 101470 91
2007-01-22 10:19 51°16.618 2°36.71 5.3 24 5.8 101470 90
2007-01-22 10:20 51°16.612 2°36.677 4.2 270 5.8 101470 90
2007-01-22 10:21 51°16.605 2°36.642 4.1 270 5.8 101470 89
2007-01-22 10:22 51°16.595 2°36.605 3.4 265 5.8 101470 89
2007-01-22 10:23 51°16.589 2°36.562 4.7 258 5.9 101470 89
2007-01-22 10:24 51°16.619 2°36.454 4.9 254 5.9 101460 88
2007-01-22 10:25 51°16.732 2°36.332 7.5 27 5.9 101460 88
2007-01-22 10:26 51°16.903 2°36.123 6.3 25 5.9 101440 87
2007-01-22 10:27 51°17.082 2°35.916 7.3 27 5.9 101450 87
2007-01-22 10:28 51°17.262 2°35.717 6.6 24 5.9 101450 87
2007-01-22 10:29 51°17.438 2°35.508 6.7 21 5.9 101440 86
2007-01-22 10:30 51°17.614 2°35.283 7 19 6 101450 86
2007-01-22 10:31 51°17.782 2°35.028 7.8 28 6 101440 86
2007-01-22 10:32 51°17.924 2°34.733 9.6 23 6.1 101440 87
2007-01-22 10:33 51°18.039 2°34.397 8.4 24 6.1 101440 87
2007-01-22 10:34 51°18.156 2°34.066 7.9 24 6.2 101440 87
2007-01-22 10:35 51°18.273 2°33.738 7.5 25 6.2 101450 88
2007-01-22 10:36 51°18.392 2°33.411 9.1 22 6.3 101440 88
2007-01-22 10:37 51°18.513 2°33.09 8.1 20 6.2 101450 88
2007-01-22 10:38 51°18.631 2°32.769 8.1 24 6.2 101450 88
2007-01-22 10:39 51°18.746 2°32.442 8.1 20 6.2 101450 88
2007-01-22 10:40 51°18.86 2°32.115 8.4 25 6.2 101450 88
2007-01-22 10:41 51°18.973 2°31.789 8.9 22 6.3 101450 88
2007-01-22 10:42 51°19.085 2°31.463 8.3 26 6.3 101450 88
2007-01-22 10:43 51°19.198 2°31.135 9.6 20 6.4 101440 88
2007-01-22 10:44 51°19.309 2°30.804 9.3 25 6.4 101440 87
2007-01-22 10:45 51°19.411 2°30.461 9.7 27 6.3 101430 87
2007-01-22 10:46 51°19.529 2°30.137 6.5 22 6.3 101440 87
2007-01-22 10:47 51°19.659 2°29.966 5.7 27 6.3 101470 87
2007-01-22 10:48 51°19.73 2°29.772 3.4 262 6.3 101470 87
2007-01-22 10:49 51°19.785 2°29.715 3.4 24 6.3 101490 87
2007-01-22 10:50 51°19.817 2°29.72 3.3 41 6.3 101490 87
2007-01-22 10:51 51°19.843 2°29.768 2.1 43 6.3 101480 86
2007-01-22 10:52 51°19.893 2°29.845 2 41 6.3 101490 86
2007-01-22 10:53 51°19.952 2°29.925 1.8 38 6.3 101490 86
2007-01-22 10:54 51°19.998 2°29.986 1.4 19 6.3 101500 86
2007-01-22 10:55 51°20.02 2°30.004 4 25 6.4 101490 87
2007-01-22 10:56 51°20.021 2°30.001 3.1 25 6.3 101490 85
2007-01-22 10:57 51°20.015 2°29.988 5 23 6.5 101500 86
2007-01-22 10:58 51°20.007 2°29.965 4.2 27 6.6 101510 84
2007-01-22 10:59 51°19.996 2°29.941 3.6 19 6.5 101500 83
2007-01-22 11:00 51°19.985 2°29.924 3.3 26 6.6 101500 84
2007-01-22 11:01 51°19.972 2°29.902 4 270 6.6 101500 84
2007-01-22 11:02 51°19.958 2°29.879 2.8 251 6.6 101500 84
2007-01-22 11:03 51°19.955 2°29.907 3.3 24 6.6 101490 84
2007-01-22 11:04 51°20.013 2°29.907 7.7 335 6.6 101490 83
2007-01-22 11:05 51°20.182 2°29.964 11.1 335 6.5 101470 83
2007-01-22 11:06 51°20.384 2°30.046 12.1 333 6.5 101460 83
2007-01-22 11:07 51°20.586 2°30.133 12.6 332 6.5 101460 83
2007-01-22 11:08 51°20.786 2°30.216 13.2 331 6.6 101460 82
2007-01-22 11:09 51°20.981 2°30.3 14.5 333 6.6 101450 81
2007-01-22 11:10 51°21.175 2°30.384 13.8 331 6.6 101440 80
2007-01-22 11:11 51°21.366 2°30.461 13 333 6.5 101450 80
2007-01-22 11:12 51°21.553 2°30.536 12.5 335 6.5 101450 80
2007-01-22 11:13 51°21.744 2°30.631 13.9 331 6.4 101450 80
2007-01-22 11:14 51°21.931 2°30.731 13.6 327 6.4 101450 80
2007-01-22 11:15 51°22.118 2°30.831 14.9 328 6.3 101450 79
2007-01-22 11:16 51°22.305 2°30.933 14.9 331 6.2 101450 79
2007-01-22 11:17 51°22.493 2°31.035 16.9 328 6.1 101440 80
2007-01-22 11:18 51°22.678 2°31.146 15.5 328 5.9 101440 81
2007-01-22 11:19 51°22.862 2°31.261 14.7 334 5.6 101460 82
2007-01-22 11:20 51°23.033 2°31.401 14.6 327 5.4 101460 83
2007-01-22 11:21 51°23.18 2°31.593 14 326 5.1 101460 84
2007-01-22 11:22 51°23.317 2°31.821 10.3 326 4.9 101480 86
2007-01-22 11:23 51°23.413 2°32.089 10.6 321 4.7 101490 88
2007-01-22 11:24 51°23.457 2°32.398 9.8 319 4.7 101490 89
2007-01-22 11:25 51°23.481 2°32.716 9 322 4.7 101490 90
2007-01-22 11:26 51°23.499 2°33.039 10.8 319 4.8 101490 91
2007-01-22 11:27 51°23.511 2°33.363 10.7 322 4.9 101490 92
2007-01-22 11:28 51°23.524 2°33.687 10.5 320 4.9 101500 92
2007-01-22 11:29 51°23.537 2°34.01 9.2 323 4.8 101500 92
2007-01-22 11:30 51°23.549 2°34.327 8.3 324 4.8 101500 92
2007-01-22 11:31 51°23.563 2°34.656 8.5 326 4.7 101500 92
2007-01-22 11:32 51°23.572 2°34.981 8.8 328 4.6 101510 92
2007-01-22 11:33 51°23.578 2°35.305 10.1 326 4.6 101510 92
2007-01-22 11:34 51°23.585 2°35.626 9.5 327 4.7 101510 92
2007-01-22 11:35 51°23.594 2°35.957 7.9 331 4.6 101510 92
2007-01-22 11:36 51°23.603 2°36.286 9.6 327 4.6 101510 92
2007-01-22 11:37 51°23.609 2°36.615 8.7 328 4.6 101510 92
2007-01-22 11:38 51°23.621 2°36.947 9.3 329 4.6 101520 92
2007-01-22 11:39 51°23.631 2°37.282 10.3 335 4.5 101530 91
2007-01-22 11:40 51°23.641 2°37.615 10.1 333 4.5 101520 91
2007-01-22 11:41 51°23.653 2°37.95 8.6 337 4.4 101520 90
2007-01-22 11:42 51°23.664 2°38.289 9 340 4.4 101520 90
2007-01-22 11:43 51°23.681 2°38.627 7.1 342 4.3 101520 89
2007-01-22 11:44 51°23.713 2°38.959 6.8 340 4.3 101510 89
2007-01-22 11:45 51°23.764 2°39.282 8.2 341 4.2 101520 88
2007-01-22 11:46 51°23.829 2°39.597 8 344 4.3 101520 88
2007-01-22 11:47 51°23.897 2°39.912 6.9 346 4.3 101510 88
2007-01-22 11:48 51°23.966 2°40.23 5.8 344 4.4 101510 88
2007-01-22 11:49 51°24.036 2°40.548 7.6 338 4.4 101520 88
2007-01-22 11:50 51°24.115 2°40.86 6.1 334 4.5 101510 87
2007-01-22 11:51 51°24.193 2°41.172 6.8 334 4.5 101520 87
2007-01-22 11:52 51°24.273 2°41.483 7.7 338 4.6 101520 87
2007-01-22 11:53 51°24.349 2°41.796 6 342 4.6 101520 86
2007-01-22 11:54 51°24.426 2°42.108 6.1 341 4.7 101520 87
2007-01-22 11:55 51°24.503 2°42.421 7.2 335 4.7 101520 87
2007-01-22 11:56 51°24.579 2°42.728 8 335 4.8 101520 87
2007-01-22 11:57 51°24.657 2°43.037 6.9 341 5 101520 88
2007-01-22 11:58 51°24.734 2°43.344 10.3 338 5.1 101520 89
2007-01-22 11:59 51°24.812 2°43.659 12.9 333 5.3 101510 89
2007-01-22 12:00 51°24.889 2°43.967 13.7 332 5.5 101500 89
2007-01-22 12:01 51°24.963 2°44.27 16.7 331 5.7 101490 90
2007-01-22 12:02 51°25.04 2°44.583 16.1 329 5.7 101480 89
2007-01-22 12:03 51°25.117 2°44.893 17.1 331 5.7 101480 90
2007-01-22 12:04 51°25.192 2°45.195 16.7 333 5.7 101480 90
2007-01-22 12:05 51°25.268 2°45.508 17.8 333 5.8 101480 90
2007-01-22 12:06 51°25.342 2°45.81 16.9 333 5.9 101480 90
2007-01-22 12:07 51°25.419 2°46.117 16.9 338 5.9 101480 90
2007-01-22 12:08 51°25.488 2°46.431 17 335 5.8 101480 90
2007-01-22 12:09 51°25.549 2°46.751 15.5 332 5.8 101490 90
2007-01-22 12:10 51°25.612 2°47.069 16 332 5.7 101490 90
2007-01-22 12:11 51°25.672 2°47.38 19.9 323 5.8 101500 91
2007-01-22 12:12 51°25.734 2°47.7 17.4 323 5.9 101480 91
2007-01-22 12:13 51°25.791 2°48.001 17.4 326 5.9 101470 91
2007-01-22 12:14 51°25.83 2°48.239 17.1 322 5.8 101490 91
2007-01-22 12:15 51°25.864 2°48.357 17.2 332 5.8 101520 91
2007-01-22 12:16 51°25.886 2°48.411 16.8 336 5.4 101530 90
2007-01-22 12:17 51°25.923 2°48.428 17.9 337 5.2 101490 91
2007-01-22 12:18 51°25.96 2°48.465 16.2 346 5.1 101510 92
2007-01-22 12:19 51°25.99 2°48.478 16.5 328 5 101520 92
2007-01-22 12:20 51°25.999 2°48.513 14.8 332 5 101540 92
2007-01-22 12:21 51°25.988 2°48.514 13.1 324 5.1 101540 94
2007-01-22 12:22 51°25.963 2°48.494 14.6 316 5.2 101540 95
2007-01-22 12:23 51°25.938 2°48.456 15 20 5.1 101500 94
2007-01-22 12:24 51°25.918 2°48.418 13.1 255 5.2 101500 95
2007-01-22 12:25 51°25.898 2°48.383 11 267 5.2 101520 95
2007-01-22 12:26 51°25.877 2°48.347 8.5 262 5.1 101520 95
2007-01-22 12:27 51°25.854 2°48.317 12.9 256 5.2 101510 95
2007-01-22 12:28 51°25.813 2°48.35 15.2 320 5.2 101490 95
2007-01-22 12:29 51°25.847 2°48.461 17.1 336 5.1 101520 95
2007-01-22 12:30 51°25.924 2°48.743 21.3 327 5.2 101500 95
2007-01-22 12:31 51°25.98 2°49.067 17.5 328 5.2 101500 95
2007-01-22 12:32 51°26.036 2°49.395 22.4 330 5.4 101500 96
2007-01-22 12:33 51°26.096 2°49.728 20.8 326 5.1 101510 94
2007-01-22 12:34 51°26.15 2°50.045 20.1 328 5.1 101510 95
2007-01-22 12:35 51°26.208 2°50.378 21.8 328 5 101510 95
2007-01-22 12:36 51°26.265 2°50.7 21.2 329 5.1 101510 95
2007-01-22 12:37 51°26.327 2°51.039 18.7 330 5.1 101520 95
2007-01-22 12:38 51°26.387 2°51.371 21.5 329 5.3 101530 95
2007-01-22 12:39 51°26.447 2°51.694 19.1 329 5.2 101520 94
2007-01-22 12:40 51°26.507 2°52.025 18.4 327 5.3 101520 94
2007-01-22 12:41 51°26.568 2°52.356 21.9 327 5.4 101520 94
2007-01-22 12:42 51°26.628 2°52.687 21.1 330 5.4 101500 94
2007-01-22 12:43 51°26.689 2°53.017 20.3 323 5.5 101500 95
2007-01-22 12:44 51°26.748 2°53.346 23.4 327 5.6 101490 95
2007-01-22 12:45 51°26.806 2°53.667 21.8 328 5.5 101490 94
2007-01-22 12:46 51°26.867 2°54.002 21.3 328 5.5 101500 94
2007-01-22 12:47 51°26.931 2°54.324 22.6 326 5.6 101500 94
2007-01-22 12:48 51°26.997 2°54.649 22.5 327 5.4 101490 93
2007-01-22 12:49 51°27.061 2°54.972 19.5 332 5.4 101510 94
2007-01-22 12:50 51°27.124 2°55.297 23.1 327 5.5 101500 94
2007-01-22 12:51 51°27.186 2°55.623 23.8 329 5.2 101500 93
2007-01-22 12:52 51°27.249 2°55.938 20.5 329 5.2 101520 93
2007-01-22 12:53 51°27.315 2°56.267 24.5 332 5.1 101520 93
2007-01-22 12:54 51°27.379 2°56.59 26.5 332 4.9 101510 91
2007-01-22 12:55 51°27.443 2°56.914 23.8 329 4.9 101530 91
2007-01-22 12:56 51°27.507 2°57.246 25.4 332 5 101520 91
2007-01-22 12:57 51°27.569 2°57.572 22.8 330 4.9 101520 90
2007-01-22 12:58 51°27.594 2°57.903 22.6 327 4.9 101520 90
2007-01-22 12:59 51°27.619 2°58.242 22 327 4.9 101520 90
2007-01-22 13:00 51°27.655 2°58.588 21.9 328 5 101540 91
2007-01-22 13:01 51°27.688 2°58.926 21.8 326 4.9 101550 90
2007-01-22 13:02 51°27.721 2°59.272 21.7 329 4.8 101530 90
2007-01-22 13:03 51°27.752 2°59.611 22.1 329 4.6 101540 91
2007-01-22 13:04 51°27.786 2°59.945 23.4 327 4.6 101540 91
2007-01-22 13:05 51°27.823 3°0.29 19.1 326 4.5 101540 92
2007-01-22 13:06 51°27.86 3°0.631 24 327 4.6 101540 92
2007-01-22 13:07 51°27.899 3°0.962 21.6 325 4.4 101540 92
2007-01-22 13:08 51°27.949 3°1.299 24 329 4.4 101540 93
2007-01-22 13:09 51°28.004 3°1.638 22.6 329 4.3 101560 92
2007-01-22 13:10 51°28.057 3°1.973 21.5 332 4.5 101540 93
2007-01-22 13:11 51°28.112 3°2.32 24.2 328 4.5 101550 92
2007-01-22 13:12 51°28.164 3°2.661 20.6 328 4.4 101550 92
2007-01-22 13:13 51°28.199 3°2.918 19.6 329 4.4 101600 93
2007-01-22 13:14 51°28.211 3°3.065 15.7 324 4.4 101610 93
2007-01-22 13:15 51°28.213 3°3.148 16.9 337 4.5 101610 93
2007-01-22 13:16 51°28.232 3°3.204 16.9 334 4.5 101580 92
2007-01-22 13:17 51°28.257 3°3.351 18.6 330 4.7 101600 92
2007-01-22 13:18 51°28.266 3°3.507 17 324 4.6 101610 91
2007-01-22 13:19 51°28.249 3°3.53 18.9 22 4.6 101590 90
2007-01-22 13:20 51°28.229 3°3.529 17.8 257 4.6 101590 90
2007-01-22 13:21 51°28.209 3°3.526 18.8 255 4.5 101600 89
2007-01-22 13:22 51°28.189 3°3.527 17.1 252 4.6 101590 89
2007-01-22 13:23 51°28.17 3°3.527 15.3 252 4.5 101590 88
2007-01-22 13:24 51°28.152 3°3.529 16.2 250 4.5 101590 88
2007-01-22 13:25 51°28.113 3°3.561 14.8 23 4.6 101580 87
2007-01-22 13:26 51°28.055 3°3.687 19.2 21 4.6 101570 88
2007-01-22 13:27 51°28.008 3°3.795 18.9 251 4.6 101560 87
2007-01-22 13:28 51°27.906 3°3.906 17.2 24 4.7 101570 87
2007-01-22 13:29 51°27.799 3°4.025 21.2 248 4.7 101580 87
2007-01-22 13:30 51°27.688 3°4.153 15.6 23 4.6 101570 86
2007-01-22 13:31 51°27.58 3°4.289 17.2 24 4.6 101570 86
2007-01-22 13:32 51°27.468 3°4.43 18.8 23 4.7 101540 85
2007-01-22 13:33 51°27.36 3°4.562 15.1 23 4.7 101590 85
2007-01-22 13:34 51°27.252 3°4.702 18 25 4.9 101560 86
2007-01-22 13:35 51°27.139 3°4.839 14.9 22 4.9 101540 85
2007-01-22 13:36 51°27.033 3°4.97 18.1 21 4.8 101560 84
2007-01-22 13:37 51°26.923 3°5.113 18.8 24 4.8 101580 84
2007-01-22 13:38 51°26.818 3°5.247 19.1 24 4.9 101560 84
2007-01-22 13:39 51°26.714 3°5.386 16.7 22 4.9 101550 84
2007-01-22 13:40 51°26.61 3°5.529 19.7 22 4.9 101570 85
2007-01-22 13:41 51°26.504 3°5.674 15.6 20 4.9 101580 84
2007-01-22 13:42 51°26.402 3°5.815 22.3 25 4.9 101570 84
2007-01-22 13:43 51°26.299 3°5.951 18.8 24 4.8 101550 84
2007-01-22 13:44 51°26.197 3°6.093 17.9 23 4.8 101560 83
2007-01-22 13:45 51°26.1 3°6.231 15.8 23 4.9 101570 84
2007-01-22 13:46 51°25.993 3°6.379 17.2 23 5 101580 84
2007-01-22 13:47 51°25.88 3°6.535 19.8 22 5 101560 84
2007-01-22 13:48 51°25.71 3°6.769 19.2 22 4.9 101520 83
2007-01-22 13:49 51°25.53 3°7.015 19.6 22 4.9 101550 83
2007-01-22 13:50 51°25.351 3°7.248 19.1 25 4.9 101520 82
2007-01-22 13:51 51°25.174 3°7.493 21.3 22 5 101540 83
2007-01-22 13:52 51°24.993 3°7.744 15.2 24 5 101540 83
2007-01-22 13:53 51°24.815 3°8.006 20.9 20 4.9 101520 82
2007-01-22 13:54 51°24.635 3°8.263 17.5 25 4.9 101540 83
2007-01-22 13:55 51°24.452 3°8.527 20.1 23 4.9 101550 83
2007-01-22 13:56 51°24.277 3°8.776 17.1 22 4.9 101540 83
2007-01-22 13:57 51°24.095 3°9.058 20.2 24 4.8 101530 82
2007-01-22 13:58 51°23.922 3°9.33 19.1 22 4.8 101510 82
2007-01-22 13:59 51°23.754 3°9.626 20.7 23 4.8 101520 82
2007-01-22 14:00 51°23.595 3°9.923 19.1 24 4.8 101530 82
2007-01-22 14:01 51°23.442 3°10.217 21.2 22 4.8 101550 82
2007-01-22 14:02 51°23.288 3°10.53 16.9 22 4.8 101510 82
2007-01-22 14:03 51°23.146 3°10.851 18.9 22 4.8 101520 81
2007-01-22 14:04 51°23.014 3°11.172 19.4 22 4.8 101510 81
2007-01-22 14:05 51°22.892 3°11.516 21.1 23 4.8 101540 80
2007-01-22 14:06 51°22.789 3°11.881 19.7 316 4.8 101540 80
2007-01-22 14:07 51°22.691 3°12.25 21.6 319 4.7 101540 80
2007-01-22 14:08 51°22.631 3°12.644 22.1 324 4.8 101580 81
2007-01-22 14:09 51°22.582 3°12.959 18.9 318 4.7 101610 82
2007-01-22 14:10 51°22.558 3°13.137 16.1 320 4.6 101650 81
2007-01-22 14:11 51°22.545 3°13.245 15.1 318 4.5 101630 81
2007-01-22 14:12 51°22.534 3°13.309 12.6 22 4.6 101620 82
2007-01-22 14:13 51°22.524 3°13.446 16.5 339 4.6 101620 81
2007-01-22 14:14 51°22.583 3°13.507 12.1 33 4.8 101580 82
2007-01-22 14:15 51°22.572 3°13.406 10.4 18 4.9 101650 82
2007-01-22 14:16 51°22.592 3°13.335 10.1 43 5 101650 81
2007-01-22 14:17 51°22.611 3°13.298 11.6 22 4.9 101650 80
2007-01-22 14:18 51°22.593 3°13.254 11.3 26 5 101670 81
2007-01-22 14:19 51°22.594 3°13.226 16.2 35 4.9 101660 80
2007-01-22 14:20 51°22.62 3°13.216 18.4 30 4.9 101630 80
2007-01-22 14:21 51°22.633 3°13.246 13.7 18 4.8 101630 78
2007-01-22 14:22 51°22.636 3°13.291 14.3 20 4.9 101640 80
2007-01-22 14:23 51°22.627 3°13.337 12.4 29 5 101650 81
2007-01-22 14:24 51°22.617 3°13.387 11.5 37 5 101640 81
2007-01-22 14:25 51°22.623 3°13.376 8.7 20 5 101650 81
2007-01-22 14:26 51°22.609 3°13.203 8 22 5.1 101640 81
2007-01-22 14:27 51°22.595 3°12.912 6.4 37 5.3 101670 82
2007-01-22 14:28 51°22.563 3°12.638 3.5 40 5.4 101650 83
2007-01-22 14:29 51°22.514 3°12.36 5.8 20 5.4 101650 82
2007-01-22 14:30 51°22.433 3°12.094 5.3 22 5.3 101660 81
2007-01-22 14:31 51°22.352 3°11.827 4.2 23 5.5 101670 80
2007-01-22 14:32 51°22.284 3°11.552 2.9 19 5.5 101670 80
2007-01-22 14:33 51°22.205 3°11.274 3.5 25 5.8 101670 80
2007-01-22 14:34 51°22.127 3°11.001 4.7 21 6 101680 80
2007-01-22 14:35 51°22.056 3°10.727 6.6 25 5.8 101670 78
2007-01-22 14:36 51°21.987 3°10.44 4 23 5.5 101680 75
2007-01-22 14:37 51°21.92 3°10.158 3.9 44 5.6 101680 77
2007-01-22 14:38 51°21.818 3°9.896 5 19 5.8 101680 78
2007-01-22 14:39 51°21.688 3°9.677 3.2 269 5.7 101680 77
2007-01-22 14:40 51°21.563 3°9.429 4.5 21 5.7 101680 79
2007-01-22 14:41 51°21.443 3°9.174 4.8 18 5.7 101690 78
2007-01-22 14:42 51°21.323 3°8.922 5.6 26 5.8 101690 79
2007-01-22 14:43 51°21.205 3°8.67 5 24 5.8 101680 79
2007-01-22 14:44 51°21.087 3°8.424 4.8 24 5.4 101690 76
2007-01-22 14:45 51°20.972 3°8.165 5.4 22 5.8 101690 78
2007-01-22 14:46 51°20.852 3°7.913 8.7 20 6 101680 76
2007-01-22 14:47 51°20.74 3°7.66 4 26 6.1 101690 77
2007-01-22 14:48 51°20.617 3°7.4 8.1 27 5.9 101690 73
2007-01-22 14:49 51°20.496 3°7.14 4.9 22 5.6 101700 73
2007-01-22 14:50 51°20.372 3°6.887 8.5 18 5.4 101700 74
2007-01-22 14:51 51°20.259 3°6.625 5.5 21 5.2 101700 75
2007-01-22 14:52 51°20.141 3°6.352 6 24 5.5 101700 78
2007-01-22 14:53 51°20.025 3°6.091 5.3 26 5.9 101700 78
2007-01-22 14:54 51°19.904 3°5.814 3.4 24 6.2 101700 79
2007-01-22 14:55 51°19.788 3°5.548 5.1 26 6.3 101700 77
2007-01-22 14:56 51°19.683 3°5.268 5.7 23 6.2 101690 76
2007-01-22 14:57 51°19.571 3°4.984 4.5 20 6.1 101700 75
2007-01-22 14:58 51°19.464 3°4.709 5.9 24 5.9 101700 76
2007-01-22 14:59 51°19.354 3°4.435 5.9 20 5.7 101700 75
2007-01-22 15:00 51°19.251 3°4.159 4.9 21 5.8 101730 77
2007-01-22 15:01 51°19.147 3°3.889 5.9 22 5.9 101730 78
2007-01-22 15:02 51°19.041 3°3.618 5.8 21 5.8 101730 77
2007-01-22 15:03 51°18.932 3°3.342 6.2 22 6.2 101710 77
2007-01-22 15:04 51°18.828 3°3.056 7.2 21 6.4 101710 76
2007-01-22 15:05 51°18.718 3°2.786 4.9 26 6.1 101710 74
2007-01-22 15:06 51°18.619 3°2.505 4.6 26 5.9 101710 73
2007-01-22 15:07 51°18.515 3°2.215 7.7 26 5.9 101700 75
2007-01-22 15:08 51°18.398 3°1.949 6.3 26 6 101710 76
2007-01-22 15:09 51°18.294 3°1.681 3.4 24 6.2 101710 74
2007-01-22 15:10 51°18.186 3°1.412 5.3 20 6.3 101710 74
2007-01-22 15:11 51°18.082 3°1.132 4.4 25 6.2 101710 73
2007-01-22 15:12 51°17.97 3°0.869 6.5 24 6.1 101710 74
2007-01-22 15:13 51°17.857 3°0.588 5.9 20 5.9 101720 75
2007-01-22 15:14 51°17.754 3°0.313 8.4 25 5.6 101710 75
2007-01-22 15:15 51°17.644 3°0.038 4.2 24 5.4 101710 76
2007-01-22 15:16 51°17.533 2°59.768 7.7 19 5.6 101710 78
2007-01-22 15:17 51°17.43 2°59.489 6.6 25 5.3 101720 75
2007-01-22 15:18 51°17.33 2°59.21 4 25 5.4 101730 77
2007-01-22 15:19 51°17.253 2°58.909 5.6 24 5.6 101710 77
2007-01-22 15:20 51°17.18 2°58.606 5.9 45 5.5 101710 75
2007-01-22 15:21 51°17.117 2°58.289 6 20 5.3 101720 76
2007-01-22 15:22 51°17.045 2°57.987 4.2 25 5.1 101720 75
2007-01-22 15:23 51°16.976 2°57.68 4.9 25 5.6 101720 77
2007-01-22 15:24 51°16.912 2°57.369 8.4 22 5.8 101720 72
2007-01-22 15:25 51°16.849 2°57.059 4.7 21 5.8 101720 69
2007-01-22 15:26 51°16.786 2°56.739 5.9 27 5.9 101720 69
2007-01-22 15:27 51°16.719 2°56.432 3.3 26 6 101720 70
2007-01-22 15:28 51°16.656 2°56.118 6.2 20 6.1 101720 71
2007-01-22 15:29 51°16.587 2°55.813 3.8 26 6 101730 71
2007-01-22 15:30 51°16.522 2°55.507 2.8 22 6 101720 71
2007-01-22 15:31 51°16.462 2°55.193 6.2 18 6.3 101720 72
2007-01-22 15:32 51°16.41 2°54.932 5.4 25 6.2 101740 70
2007-01-22 15:33 51°16.382 2°54.783 7 22 6 101740 68
2007-01-22 15:34 51°16.363 2°54.673 6.6 25 6.3 101740 72
2007-01-22 15:35 51°16.338 2°54.577 8.7 24 5.9 101740 69
2007-01-22 15:36 51°16.308 2°54.445 8.3 25 5.6 101740 68
2007-01-22 15:37 51°16.272 2°54.324 11.5 24 5.6 101740 69
2007-01-22 15:38 51°16.237 2°54.285 12.2 25 5.4 101710 70
2007-01-22 15:39 51°16.219 2°54.276 14.9 270 5.4 101720 71
2007-01-22 15:40 51°16.207 2°54.281 8.9 262 5.3 101720 72
2007-01-22 15:41 51°16.202 2°54.294 13.3 248 5.5 101720 74
2007-01-22 15:42 51°16.194 2°54.315 9 21 5.6 101710 75
2007-01-22 15:43 51°16.151 2°54.366 16.6 253 5.5 101720 75
2007-01-22 15:44 51°16.127 2°54.398 11.2 252 5.5 101720 76
2007-01-22 15:45 51°16.061 2°54.431 15.7 261 5.4 101730 76
2007-01-22 15:46 51°15.908 2°54.496 14.6 254 5.4 101720 76
2007-01-22 15:47 51°15.698 2°54.557 13.2 250 5.2 101700 76
2007-01-22 15:48 51°15.49 2°54.594 15.1 21 5.3 101710 76
2007-01-22 15:49 51°15.272 2°54.633 12.5 24 5.3 101690 77
2007-01-22 15:50 51°15.063 2°54.671 13 251 5.2 101700 77
2007-01-22 15:51 51°14.857 2°54.717 11.9 21 5.1 101710 77
2007-01-22 15:52 51°14.652 2°54.801 14.1 22 5 101700 78
2007-01-22 15:53 51°14.45 2°54.931 14 25 5 101700 78
2007-01-22 15:54 51°14.31 2°55.181 14.2 22 4.9 101720 78
2007-01-22 15:55 51°14.164 2°55.382 10.3 21 4.8 101740 78
2007-01-22 15:56 51°14.01 2°55.497 7.7 22 4.5 101760 77
2007-01-22 15:57 51°13.882 2°55.592 7.3 318 4.4 101790 78
2007-01-22 15:58 51°13.772 2°55.692 7.1 20 4.4 101800 78
2007-01-22 15:59 51°13.69 2°55.831 7.4 25 4.3 101790 78
2007-01-22 16:00 51°13.637 2°55.95 5.5 23 4.2 101790 78
2007-01-22 16:01 51°13.607 2°56.041 5.1 320 4.2 101790 78
2007-01-22 16:02 51°13.599 2°56.087 6.9 21 4.2 101800 79
2007-01-22 16:03 51°13.597 2°56.093 5.1 245 4.2 101790 79